sensor_id;sensor_type;location;lat;lon;timestamp;P1;durP1;ratioP1;P2;durP2;ratioP2
73359;SDS011;63092;43.582;19.528;2022-10-31T00:02:02;54.17;;;30.65;;
73359;SDS011;63092;43.582;19.528;2022-10-31T00:04:28;56.08;;;30.83;;
73359;SDS011;63092;43.582;19.528;2022-10-31T00:06:54;49.10;;;28.73;;
73359;SDS011;63092;43.582;19.528;2022-10-31T00:09:19;49.65;;;26.63;;
73359;SDS011;63092;43.582;19.528;2022-10-31T00:11:45;46.88;;;27.05;;
73359;SDS011;63092;43.582;19.528;2022-10-31T00:14:11;36.65;;;21.02;;
73359;SDS011;63092;43.582;19.528;2022-10-31T00:16:36;26.08;;;16.67;;
73359;SDS011;63092;43.582;19.528;2022-10-31T00:19:03;28.60;;;15.75;;
73359;SDS011;63092;43.582;19.528;2022-10-31T00:21:31;24.15;;;14.65;;
73359;SDS011;63092;43.582;19.528;2022-10-31T00:23:58;27.83;;;15.98;;
73359;SDS011;63092;43.582;19.528;2022-10-31T00:26:24;27.42;;;16.10;;
73359;SDS011;63092;43.582;19.528;2022-10-31T00:28:52;27.10;;;15.50;;
73359;SDS011;63092;43.582;19.528;2022-10-31T00:31:18;33.00;;;17.77;;
73359;SDS011;63092;43.582;19.528;2022-10-31T00:33:43;27.25;;;15.85;;
73359;SDS011;63092;43.582;19.528;2022-10-31T00:36:12;28.33;;;14.63;;
73359;SDS011;63092;43.582;19.528;2022-10-31T00:38:40;23.75;;;13.75;;
73359;SDS011;63092;43.582;19.528;2022-10-31T00:41:10;24.52;;;13.98;;
73359;SDS011;63092;43.582;19.528;2022-10-31T00:43:37;24.30;;;14.40;;
73359;SDS011;63092;43.582;19.528;2022-10-31T00:46:03;29.05;;;16.08;;
73359;SDS011;63092;43.582;19.528;2022-10-31T00:48:29;27.63;;;15.23;;
73359;SDS011;63092;43.582;19.528;2022-10-31T00:50:55;24.33;;;15.60;;
73359;SDS011;63092;43.582;19.528;2022-10-31T00:53:21;26.35;;;15.25;;
73359;SDS011;63092;43.582;19.528;2022-10-31T00:55:47;27.35;;;15.75;;
73359;SDS011;63092;43.582;19.528;2022-10-31T00:58:12;29.58;;;17.05;;
73359;SDS011;63092;43.582;19.528;2022-10-31T01:00:38;30.70;;;16.48;;
73359;SDS011;63092;43.582;19.528;2022-10-31T01:03:04;28.42;;;16.88;;
73359;SDS011;63092;43.582;19.528;2022-10-31T01:05:30;28.08;;;16.50;;
73359;SDS011;63092;43.582;19.528;2022-10-31T01:07:56;29.27;;;16.48;;
73359;SDS011;63092;43.582;19.528;2022-10-31T01:10:22;27.55;;;15.80;;
73359;SDS011;63092;43.582;19.528;2022-10-31T01:12:48;23.02;;;14.15;;
73359;SDS011;63092;43.582;19.528;2022-10-31T01:15:18;25.30;;;14.27;;
73359;SDS011;63092;43.582;19.528;2022-10-31T01:17:45;21.73;;;12.27;;
73359;SDS011;63092;43.582;19.528;2022-10-31T01:20:12;20.02;;;11.68;;
73359;SDS011;63092;43.582;19.528;2022-10-31T01:22:39;24.90;;;12.88;;
73359;SDS011;63092;43.582;19.528;2022-10-31T01:25:05;22.13;;;13.38;;
73359;SDS011;63092;43.582;19.528;2022-10-31T01:27:32;23.63;;;13.63;;
73359;SDS011;63092;43.582;19.528;2022-10-31T01:29:57;23.15;;;13.93;;
73359;SDS011;63092;43.582;19.528;2022-10-31T01:32:23;22.23;;;13.20;;
73359;SDS011;63092;43.582;19.528;2022-10-31T01:34:49;24.50;;;13.48;;
73359;SDS011;63092;43.582;19.528;2022-10-31T01:37:15;27.80;;;15.43;;
73359;SDS011;63092;43.582;19.528;2022-10-31T01:39:41;27.70;;;15.43;;
73359;SDS011;63092;43.582;19.528;2022-10-31T01:42:09;22.67;;;13.43;;
73359;SDS011;63092;43.582;19.528;2022-10-31T01:47:17;27.92;;;15.73;;
73359;SDS011;63092;43.582;19.528;2022-10-31T01:49:53;38.22;;;22.83;;
73359;SDS011;63092;43.582;19.528;2022-10-31T01:52:32;46.88;;;24.88;;
73359;SDS011;63092;43.582;19.528;2022-10-31T01:55:07;47.03;;;26.08;;
73359;SDS011;63092;43.582;19.528;2022-10-31T02:00:10;48.10;;;25.02;;
73359;SDS011;63092;43.582;19.528;2022-10-31T02:02:36;42.45;;;25.27;;
73359;SDS011;63092;43.582;19.528;2022-10-31T02:05:03;41.55;;;25.13;;
73359;SDS011;63092;43.582;19.528;2022-10-31T02:10:08;48.22;;;24.98;;
73359;SDS011;63092;43.582;19.528;2022-10-31T02:12:34;47.60;;;26.02;;
73359;SDS011;63092;43.582;19.528;2022-10-31T02:15:03;39.30;;;22.55;;
73359;SDS011;63092;43.582;19.528;2022-10-31T02:17:29;46.22;;;24.52;;
73359;SDS011;63092;43.582;19.528;2022-10-31T02:20:00;41.25;;;23.30;;
73359;SDS011;63092;43.582;19.528;2022-10-31T02:31:00;28.20;;;17.02;;
73359;SDS011;63092;43.582;19.528;2022-10-31T02:33:41;20.67;;;12.48;;
73359;SDS011;63092;43.582;19.528;2022-10-31T02:38:46;22.15;;;11.98;;
73359;SDS011;63092;43.582;19.528;2022-10-31T02:41:40;20.20;;;10.70;;
73359;SDS011;63092;43.582;19.528;2022-10-31T02:46:45;22.35;;;12.38;;
73359;SDS011;63092;43.582;19.528;2022-10-31T02:52:13;21.50;;;11.40;;
73359;SDS011;63092;43.582;19.528;2022-10-31T02:54:42;18.65;;;11.48;;
73359;SDS011;63092;43.582;19.528;2022-10-31T02:57:10;22.23;;;11.95;;
73359;SDS011;63092;43.582;19.528;2022-10-31T02:59:38;21.23;;;12.50;;
73359;SDS011;63092;43.582;19.528;2022-10-31T03:08:00;18.55;;;10.85;;
73359;SDS011;63092;43.582;19.528;2022-10-31T03:10:52;19.55;;;11.27;;
73359;SDS011;63092;43.582;19.528;2022-10-31T03:16:16;30.08;;;16.85;;
73359;SDS011;63092;43.582;19.528;2022-10-31T03:24:10;30.70;;;16.25;;
73359;SDS011;63092;43.582;19.528;2022-10-31T03:26:39;31.88;;;16.20;;
73359;SDS011;63092;43.582;19.528;2022-10-31T03:29:13;23.67;;;14.27;;
73359;SDS011;63092;43.582;19.528;2022-10-31T03:34:48;18.15;;;10.10;;
73359;SDS011;63092;43.582;19.528;2022-10-31T03:37:16;17.30;;;10.20;;
73359;SDS011;63092;43.582;19.528;2022-10-31T03:39:44;17.17;;;10.85;;
73359;SDS011;63092;43.582;19.528;2022-10-31T03:42:20;20.00;;;11.50;;
73359;SDS011;63092;43.582;19.528;2022-10-31T03:50:14;19.60;;;11.75;;
73359;SDS011;63092;43.582;19.528;2022-10-31T03:55:19;21.33;;;12.20;;
73359;SDS011;63092;43.582;19.528;2022-10-31T03:57:52;20.73;;;12.63;;
73359;SDS011;63092;43.582;19.528;2022-10-31T04:00:24;24.33;;;12.93;;
73359;SDS011;63092;43.582;19.528;2022-10-31T04:02:53;25.17;;;13.82;;
73359;SDS011;63092;43.582;19.528;2022-10-31T04:05:26;22.85;;;13.48;;
73359;SDS011;63092;43.582;19.528;2022-10-31T04:07:54;23.15;;;12.85;;
73359;SDS011;63092;43.582;19.528;2022-10-31T04:10:22;22.75;;;12.38;;
73359;SDS011;63092;43.582;19.528;2022-10-31T04:12:51;21.10;;;12.00;;
73359;SDS011;63092;43.582;19.528;2022-10-31T04:15:21;28.98;;;14.60;;
73359;SDS011;63092;43.582;19.528;2022-10-31T04:17:49;27.63;;;16.38;;
73359;SDS011;63092;43.582;19.528;2022-10-31T04:20:17;38.08;;;19.23;;
73359;SDS011;63092;43.582;19.528;2022-10-31T04:22:43;39.45;;;20.17;;
73359;SDS011;63092;43.582;19.528;2022-10-31T04:25:09;66.70;;;40.13;;
73359;SDS011;63092;43.582;19.528;2022-10-31T04:27:35;60.53;;;43.63;;
73359;SDS011;63092;43.582;19.528;2022-10-31T04:30:00;59.72;;;36.90;;
73359;SDS011;63092;43.582;19.528;2022-10-31T04:32:26;48.35;;;32.30;;
73359;SDS011;63092;43.582;19.528;2022-10-31T04:34:52;39.92;;;23.83;;
73359;SDS011;63092;43.582;19.528;2022-10-31T04:37:17;34.75;;;21.05;;
73359;SDS011;63092;43.582;19.528;2022-10-31T04:39:43;38.45;;;20.50;;
73359;SDS011;63092;43.582;19.528;2022-10-31T04:42:09;40.13;;;19.80;;
73359;SDS011;63092;43.582;19.528;2022-10-31T04:44:35;37.55;;;20.63;;
73359;SDS011;63092;43.582;19.528;2022-10-31T04:47:00;45.70;;;23.60;;
73359;SDS011;63092;43.582;19.528;2022-10-31T04:49:26;44.35;;;22.38;;
73359;SDS011;63092;43.582;19.528;2022-10-31T04:51:52;49.67;;;22.77;;
73359;SDS011;63092;43.582;19.528;2022-10-31T04:54:17;41.30;;;20.60;;
73359;SDS011;63092;43.582;19.528;2022-10-31T04:56:43;37.55;;;19.55;;
73359;SDS011;63092;43.582;19.528;2022-10-31T04:59:09;44.03;;;22.02;;
73359;SDS011;63092;43.582;19.528;2022-10-31T05:01:34;53.97;;;30.20;;
73359;SDS011;63092;43.582;19.528;2022-10-31T05:04:00;59.00;;;29.27;;
73359;SDS011;63092;43.582;19.528;2022-10-31T05:06:26;51.72;;;25.58;;
73359;SDS011;63092;43.582;19.528;2022-10-31T05:08:51;49.53;;;24.15;;
73359;SDS011;63092;43.582;19.528;2022-10-31T05:11:17;60.65;;;28.65;;
73359;SDS011;63092;43.582;19.528;2022-10-31T05:13:43;53.53;;;25.33;;
73359;SDS011;63092;43.582;19.528;2022-10-31T05:16:09;53.83;;;25.83;;
73359;SDS011;63092;43.582;19.528;2022-10-31T05:18:34;58.53;;;29.40;;
73359;SDS011;63092;43.582;19.528;2022-10-31T05:21:00;51.53;;;27.10;;
73359;SDS011;63092;43.582;19.528;2022-10-31T05:23:26;59.25;;;27.17;;
73359;SDS011;63092;43.582;19.528;2022-10-31T05:25:52;55.60;;;25.52;;
73359;SDS011;63092;43.582;19.528;2022-10-31T05:28:17;70.70;;;25.77;;
73359;SDS011;63092;43.582;19.528;2022-10-31T05:30:43;51.45;;;21.80;;
73359;SDS011;63092;43.582;19.528;2022-10-31T05:33:09;51.83;;;24.15;;
73359;SDS011;63092;43.582;19.528;2022-10-31T05:35:34;55.53;;;22.67;;
73359;SDS011;63092;43.582;19.528;2022-10-31T05:38:00;50.50;;;21.63;;
73359;SDS011;63092;43.582;19.528;2022-10-31T05:40:26;53.28;;;22.42;;
73359;SDS011;63092;43.582;19.528;2022-10-31T05:42:53;48.83;;;21.08;;
73359;SDS011;63092;43.582;19.528;2022-10-31T05:45:20;49.42;;;23.13;;
73359;SDS011;63092;43.582;19.528;2022-10-31T05:47:53;48.97;;;22.92;;
73359;SDS011;63092;43.582;19.528;2022-10-31T05:50:21;48.75;;;22.27;;
73359;SDS011;63092;43.582;19.528;2022-10-31T05:52:53;51.50;;;22.88;;
73359;SDS011;63092;43.582;19.528;2022-10-31T05:55:20;54.08;;;24.45;;
73359;SDS011;63092;43.582;19.528;2022-10-31T05:57:46;52.42;;;24.05;;
73359;SDS011;63092;43.582;19.528;2022-10-31T06:00:12;49.03;;;22.90;;
73359;SDS011;63092;43.582;19.528;2022-10-31T06:02:37;53.97;;;23.05;;
73359;SDS011;63092;43.582;19.528;2022-10-31T06:05:03;47.85;;;23.45;;
73359;SDS011;63092;43.582;19.528;2022-10-31T06:07:33;56.63;;;23.02;;
73359;SDS011;63092;43.582;19.528;2022-10-31T06:09:59;45.33;;;21.00;;
73359;SDS011;63092;43.582;19.528;2022-10-31T06:12:25;41.63;;;21.10;;
73359;SDS011;63092;43.582;19.528;2022-10-31T06:14:51;45.63;;;21.88;;
73359;SDS011;63092;43.582;19.528;2022-10-31T06:17:17;53.92;;;23.02;;
73359;SDS011;63092;43.582;19.528;2022-10-31T06:19:42;48.95;;;22.90;;
73359;SDS011;63092;43.582;19.528;2022-10-31T06:22:08;50.53;;;23.83;;
73359;SDS011;63092;43.582;19.528;2022-10-31T06:24:36;47.90;;;22.75;;
73359;SDS011;63092;43.582;19.528;2022-10-31T06:27:03;52.15;;;23.63;;
73359;SDS011;63092;43.582;19.528;2022-10-31T06:29:29;53.60;;;25.15;;
73359;SDS011;63092;43.582;19.528;2022-10-31T06:31:55;63.50;;;24.80;;
73359;SDS011;63092;43.582;19.528;2022-10-31T06:34:20;50.33;;;22.77;;
73359;SDS011;63092;43.582;19.528;2022-10-31T06:36:46;57.45;;;24.10;;
73359;SDS011;63092;43.582;19.528;2022-10-31T06:39:12;55.03;;;24.83;;
73359;SDS011;63092;43.582;19.528;2022-10-31T06:41:39;53.60;;;25.42;;
73359;SDS011;63092;43.582;19.528;2022-10-31T06:44:06;44.83;;;21.88;;
73359;SDS011;63092;43.582;19.528;2022-10-31T06:46:32;49.88;;;22.42;;
73359;SDS011;63092;43.582;19.528;2022-10-31T06:48:58;46.45;;;20.73;;
73359;SDS011;63092;43.582;19.528;2022-10-31T06:51:24;43.40;;;20.52;;
73359;SDS011;63092;43.582;19.528;2022-10-31T06:53:50;46.17;;;20.95;;
73359;SDS011;63092;43.582;19.528;2022-10-31T06:56:16;57.25;;;28.88;;
73359;SDS011;63092;43.582;19.528;2022-10-31T06:58:42;58.13;;;26.15;;
73359;SDS011;63092;43.582;19.528;2022-10-31T07:01:07;52.30;;;25.63;;
73359;SDS011;63092;43.582;19.528;2022-10-31T07:03:33;61.22;;;27.50;;
73359;SDS011;63092;43.582;19.528;2022-10-31T07:05:59;62.13;;;26.80;;
73359;SDS011;63092;43.582;19.528;2022-10-31T07:08:25;68.45;;;31.33;;
73359;SDS011;63092;43.582;19.528;2022-10-31T07:10:54;59.45;;;28.65;;
73359;SDS011;63092;43.582;19.528;2022-10-31T07:13:21;75.43;;;34.17;;
73359;SDS011;63092;43.582;19.528;2022-10-31T07:15:51;72.43;;;33.35;;
73359;SDS011;63092;43.582;19.528;2022-10-31T07:18:18;73.53;;;34.15;;
73359;SDS011;63092;43.582;19.528;2022-10-31T07:20:45;71.95;;;33.95;;
73359;SDS011;63092;43.582;19.528;2022-10-31T07:23:11;61.85;;;29.05;;
73359;SDS011;63092;43.582;19.528;2022-10-31T07:25:37;58.13;;;28.70;;
73359;SDS011;63092;43.582;19.528;2022-10-31T07:28:04;53.10;;;26.90;;
73359;SDS011;63092;43.582;19.528;2022-10-31T07:30:30;47.65;;;25.25;;
73359;SDS011;63092;43.582;19.528;2022-10-31T07:32:55;62.10;;;31.70;;
73359;SDS011;63092;43.582;19.528;2022-10-31T07:35:22;57.28;;;30.27;;
73359;SDS011;63092;43.582;19.528;2022-10-31T07:37:49;52.45;;;27.88;;
73359;SDS011;63092;43.582;19.528;2022-10-31T07:40:16;47.97;;;26.17;;
73359;SDS011;63092;43.582;19.528;2022-10-31T07:42:43;53.95;;;28.95;;
73359;SDS011;63092;43.582;19.528;2022-10-31T07:45:11;50.38;;;26.52;;
73359;SDS011;63092;43.582;19.528;2022-10-31T07:50:13;49.10;;;29.25;;
73359;SDS011;63092;43.582;19.528;2022-10-31T07:52:43;59.45;;;29.73;;
73359;SDS011;63092;43.582;19.528;2022-10-31T07:55:10;51.67;;;28.70;;
73359;SDS011;63092;43.582;19.528;2022-10-31T07:57:36;61.38;;;28.30;;
73359;SDS011;63092;43.582;19.528;2022-10-31T08:00:03;49.58;;;28.48;;
73359;SDS011;63092;43.582;19.528;2022-10-31T08:02:33;51.70;;;27.20;;
73359;SDS011;63092;43.582;19.528;2022-10-31T08:04:59;47.45;;;27.55;;
73359;SDS011;63092;43.582;19.528;2022-10-31T08:07:26;47.70;;;25.98;;
73359;SDS011;63092;43.582;19.528;2022-10-31T08:09:53;47.65;;;26.27;;
73359;SDS011;63092;43.582;19.528;2022-10-31T08:12:19;41.28;;;24.08;;
73359;SDS011;63092;43.582;19.528;2022-10-31T08:14:45;46.65;;;25.38;;
73359;SDS011;63092;43.582;19.528;2022-10-31T08:17:11;35.55;;;22.85;;
73359;SDS011;63092;43.582;19.528;2022-10-31T08:19:37;42.28;;;24.48;;
73359;SDS011;63092;43.582;19.528;2022-10-31T08:22:02;41.90;;;24.70;;
73359;SDS011;63092;43.582;19.528;2022-10-31T08:24:28;33.95;;;19.83;;
73359;SDS011;63092;43.582;19.528;2022-10-31T08:26:54;36.90;;;21.60;;
73359;SDS011;63092;43.582;19.528;2022-10-31T08:29:29;35.70;;;21.08;;
73359;SDS011;63092;43.582;19.528;2022-10-31T08:31:58;29.83;;;18.75;;
73359;SDS011;63092;43.582;19.528;2022-10-31T08:34:24;31.50;;;19.08;;
73359;SDS011;63092;43.582;19.528;2022-10-31T08:36:51;29.98;;;18.33;;
73359;SDS011;63092;43.582;19.528;2022-10-31T08:39:17;32.42;;;19.85;;
73359;SDS011;63092;43.582;19.528;2022-10-31T08:41:43;28.25;;;16.60;;
73359;SDS011;63092;43.582;19.528;2022-10-31T08:44:08;25.83;;;16.27;;
73359;SDS011;63092;43.582;19.528;2022-10-31T08:46:34;24.67;;;15.65;;
73359;SDS011;63092;43.582;19.528;2022-10-31T08:49:00;21.08;;;13.68;;
73359;SDS011;63092;43.582;19.528;2022-10-31T08:51:26;19.88;;;12.77;;
73359;SDS011;63092;43.582;19.528;2022-10-31T08:53:52;24.60;;;14.60;;
73359;SDS011;63092;43.582;19.528;2022-10-31T08:56:18;22.58;;;12.23;;
73359;SDS011;63092;43.582;19.528;2022-10-31T08:58:43;22.95;;;13.52;;
73359;SDS011;63092;43.582;19.528;2022-10-31T09:01:09;25.50;;;14.05;;
73359;SDS011;63092;43.582;19.528;2022-10-31T09:03:35;29.27;;;15.52;;
73359;SDS011;63092;43.582;19.528;2022-10-31T09:06:01;31.90;;;17.75;;
73359;SDS011;63092;43.582;19.528;2022-10-31T09:08:31;25.33;;;14.60;;
73359;SDS011;63092;43.582;19.528;2022-10-31T09:10:57;23.45;;;12.98;;
73359;SDS011;63092;43.582;19.528;2022-10-31T09:13:24;20.48;;;11.65;;
73359;SDS011;63092;43.582;19.528;2022-10-31T09:15:50;22.17;;;13.00;;
73359;SDS011;63092;43.582;19.528;2022-10-31T09:18:20;19.45;;;12.25;;
73359;SDS011;63092;43.582;19.528;2022-10-31T09:20:47;22.42;;;13.05;;
73359;SDS011;63092;43.582;19.528;2022-10-31T09:23:18;21.42;;;13.13;;
73359;SDS011;63092;43.582;19.528;2022-10-31T09:25:45;19.75;;;11.60;;
73359;SDS011;63092;43.582;19.528;2022-10-31T09:28:14;20.88;;;11.63;;
73359;SDS011;63092;43.582;19.528;2022-10-31T09:30:41;16.98;;;11.10;;
73359;SDS011;63092;43.582;19.528;2022-10-31T09:33:11;23.45;;;11.40;;
73359;SDS011;63092;43.582;19.528;2022-10-31T09:35:37;17.13;;;9.55;;
73359;SDS011;63092;43.582;19.528;2022-10-31T09:38:17;16.13;;;10.05;;
73359;SDS011;63092;43.582;19.528;2022-10-31T09:51:16;13.15;;;8.20;;
73359;SDS011;63092;43.582;19.528;2022-10-31T09:56:12;13.38;;;7.75;;
73359;SDS011;63092;43.582;19.528;2022-10-31T09:58:46;14.57;;;8.02;;
73359;SDS011;63092;43.582;19.528;2022-10-31T10:01:28;15.10;;;7.78;;
73359;SDS011;63092;43.582;19.528;2022-10-31T10:09:57;15.15;;;9.18;;
73359;SDS011;63092;43.582;19.528;2022-10-31T10:28:38;9.55;;;5.20;;
73359;SDS011;63092;43.582;19.528;2022-10-31T10:34:02;10.75;;;5.65;;
73359;SDS011;63092;43.582;19.528;2022-10-31T10:39:19;10.98;;;5.53;;
73359;SDS011;63092;43.582;19.528;2022-10-31T10:41:53;9.68;;;5.78;;
73359;SDS011;63092;43.582;19.528;2022-10-31T10:44:43;9.48;;;5.50;;
73359;SDS011;63092;43.582;19.528;2022-10-31T10:47:34;11.38;;;6.25;;
73359;SDS011;63092;43.582;19.528;2022-10-31T10:58:08;24.08;;;10.82;;
73359;SDS011;63092;43.582;19.528;2022-10-31T11:00:40;15.13;;;9.07;;
73359;SDS011;63092;43.582;19.528;2022-10-31T11:03:07;7.80;;;4.63;;
73359;SDS011;63092;43.582;19.528;2022-10-31T11:08:10;10.35;;;6.35;;
73359;SDS011;63092;43.582;19.528;2022-10-31T11:10:36;14.00;;;6.10;;
73359;SDS011;63092;43.582;19.528;2022-10-31T11:18:30;16.67;;;9.32;;
73359;SDS011;63092;43.582;19.528;2022-10-31T11:21:00;19.27;;;10.63;;
73359;SDS011;63092;43.582;19.528;2022-10-31T11:23:28;58.17;;;27.63;;
73359;SDS011;63092;43.582;19.528;2022-10-31T11:25:58;41.63;;;26.15;;
73359;SDS011;63092;43.582;19.528;2022-10-31T11:28:26;21.33;;;14.48;;
73359;SDS011;63092;43.582;19.528;2022-10-31T11:31:01;16.38;;;8.85;;
73359;SDS011;63092;43.582;19.528;2022-10-31T11:33:40;11.10;;;6.28;;
73359;SDS011;63092;43.582;19.528;2022-10-31T11:36:22;8.37;;;5.17;;
73359;SDS011;63092;43.582;19.528;2022-10-31T11:38:59;15.30;;;9.38;;
73359;SDS011;63092;43.582;19.528;2022-10-31T11:44:09;12.80;;;5.25;;
73359;SDS011;63092;43.582;19.528;2022-10-31T11:49:13;11.90;;;5.63;;
73359;SDS011;63092;43.582;19.528;2022-10-31T11:51:42;12.32;;;5.97;;
73359;SDS011;63092;43.582;19.528;2022-10-31T11:54:19;16.27;;;7.97;;
73359;SDS011;63092;43.582;19.528;2022-10-31T11:56:50;22.77;;;11.13;;
73359;SDS011;63092;43.582;19.528;2022-10-31T11:59:29;15.10;;;9.05;;
73359;SDS011;63092;43.582;19.528;2022-10-31T12:01:57;13.75;;;8.15;;
73359;SDS011;63092;43.582;19.528;2022-10-31T12:07:05;13.40;;;6.60;;
73359;SDS011;63092;43.582;19.528;2022-10-31T12:09:35;11.40;;;6.65;;
73359;SDS011;63092;43.582;19.528;2022-10-31T12:18:03;11.43;;;6.97;;
73359;SDS011;63092;43.582;19.528;2022-10-31T12:31:28;15.40;;;8.10;;
73359;SDS011;63092;43.582;19.528;2022-10-31T12:53:27;10.27;;;6.60;;
73359;SDS011;63092;43.582;19.528;2022-10-31T12:58:52;17.90;;;8.25;;
73359;SDS011;63092;43.582;19.528;2022-10-31T13:01:33;14.50;;;7.00;;
73359;SDS011;63092;43.582;19.528;2022-10-31T13:04:05;12.50;;;6.72;;
73359;SDS011;63092;43.582;19.528;2022-10-31T13:06:48;16.33;;;7.32;;
73359;SDS011;63092;43.582;19.528;2022-10-31T13:12:18;18.38;;;7.63;;
73359;SDS011;63092;43.582;19.528;2022-10-31T13:14:51;14.82;;;7.18;;
73359;SDS011;63092;43.582;19.528;2022-10-31T13:17:30;19.58;;;9.45;;
73359;SDS011;63092;43.582;19.528;2022-10-31T13:20:04;14.45;;;6.57;;
73359;SDS011;63092;43.582;19.528;2022-10-31T13:22:41;17.92;;;8.35;;
73359;SDS011;63092;43.582;19.528;2022-10-31T13:25:15;16.10;;;7.68;;
73359;SDS011;63092;43.582;19.528;2022-10-31T13:27:50;14.55;;;6.80;;
73359;SDS011;63092;43.582;19.528;2022-10-31T13:30:23;18.10;;;8.32;;
73359;SDS011;63092;43.582;19.528;2022-10-31T13:33:19;19.88;;;11.10;;
73359;SDS011;63092;43.582;19.528;2022-10-31T13:38:51;17.60;;;9.93;;
73359;SDS011;63092;43.582;19.528;2022-10-31T13:44:00;29.92;;;14.25;;
73359;SDS011;63092;43.582;19.528;2022-10-31T13:46:36;29.48;;;13.15;;
73359;SDS011;63092;43.582;19.528;2022-10-31T13:49:04;32.25;;;14.70;;
73359;SDS011;63092;43.582;19.528;2022-10-31T13:51:49;28.17;;;12.00;;
73359;SDS011;63092;43.582;19.528;2022-10-31T13:56:57;23.20;;;11.60;;
73359;SDS011;63092;43.582;19.528;2022-10-31T13:59:24;44.60;;;21.70;;
73359;SDS011;63092;43.582;19.528;2022-10-31T14:09:19;23.67;;;11.47;;
73359;SDS011;63092;43.582;19.528;2022-10-31T14:11:53;25.23;;;12.05;;
73359;SDS011;63092;43.582;19.528;2022-10-31T14:14:23;20.92;;;11.32;;
73359;SDS011;63092;43.582;19.528;2022-10-31T14:16:56;29.50;;;13.95;;
73359;SDS011;63092;43.582;19.528;2022-10-31T14:19:23;25.30;;;13.38;;
73359;SDS011;63092;43.582;19.528;2022-10-31T14:21:50;27.38;;;13.73;;
73359;SDS011;63092;43.582;19.528;2022-10-31T14:26:53;32.25;;;15.82;;
73359;SDS011;63092;43.582;19.528;2022-10-31T14:29:22;30.45;;;14.60;;
73359;SDS011;63092;43.582;19.528;2022-10-31T14:34:42;43.55;;;18.88;;
73359;SDS011;63092;43.582;19.528;2022-10-31T14:37:24;55.15;;;23.77;;
73359;SDS011;63092;43.582;19.528;2022-10-31T14:43:02;48.95;;;22.73;;
73359;SDS011;63092;43.582;19.528;2022-10-31T14:51:02;69.68;;;32.08;;
73359;SDS011;63092;43.582;19.528;2022-10-31T14:53:53;78.50;;;32.40;;
73359;SDS011;63092;43.582;19.528;2022-10-31T14:56:23;63.83;;;29.60;;
73359;SDS011;63092;43.582;19.528;2022-10-31T14:58:49;75.15;;;36.78;;
73359;SDS011;63092;43.582;19.528;2022-10-31T15:01:34;68.45;;;34.58;;
73359;SDS011;63092;43.582;19.528;2022-10-31T15:04:27;57.33;;;27.63;;
73359;SDS011;63092;43.582;19.528;2022-10-31T15:10:00;55.78;;;27.55;;
73359;SDS011;63092;43.582;19.528;2022-10-31T15:15:09;47.08;;;24.15;;
73359;SDS011;63092;43.582;19.528;2022-10-31T15:20:10;68.07;;;34.60;;
73359;SDS011;63092;43.582;19.528;2022-10-31T15:22:42;61.88;;;31.40;;
73359;SDS011;63092;43.582;19.528;2022-10-31T15:25:26;72.05;;;32.05;;
73359;SDS011;63092;43.582;19.528;2022-10-31T15:27:55;80.28;;;35.17;;
73359;SDS011;63092;43.582;19.528;2022-10-31T15:32:48;72.10;;;29.45;;
73359;SDS011;63092;43.582;19.528;2022-10-31T15:35:25;64.80;;;28.13;;
73359;SDS011;63092;43.582;19.528;2022-10-31T15:37:52;53.78;;;24.23;;
73359;SDS011;63092;43.582;19.528;2022-10-31T15:40:19;52.65;;;22.42;;
73359;SDS011;63092;43.582;19.528;2022-10-31T15:42:54;54.10;;;25.80;;
73359;SDS011;63092;43.582;19.528;2022-10-31T15:45:23;47.28;;;23.80;;
73359;SDS011;63092;43.582;19.528;2022-10-31T15:47:55;45.88;;;25.30;;
73359;SDS011;63092;43.582;19.528;2022-10-31T15:50:48;65.28;;;34.47;;
73359;SDS011;63092;43.582;19.528;2022-10-31T15:53:18;67.95;;;32.60;;
73359;SDS011;63092;43.582;19.528;2022-10-31T15:55:57;70.10;;;32.58;;
73359;SDS011;63092;43.582;19.528;2022-10-31T15:58:25;68.20;;;31.63;;
73359;SDS011;63092;43.582;19.528;2022-10-31T16:00:57;72.40;;;33.35;;
73359;SDS011;63092;43.582;19.528;2022-10-31T16:03:27;72.70;;;34.83;;
73359;SDS011;63092;43.582;19.528;2022-10-31T16:05:55;81.30;;;38.90;;
73359;SDS011;63092;43.582;19.528;2022-10-31T16:11:39;157.52;;;66.45;;
73359;SDS011;63092;43.582;19.528;2022-10-31T16:16:19;124.10;;;56.60;;
73359;SDS011;63092;43.582;19.528;2022-10-31T16:18:47;114.75;;;54.33;;
73359;SDS011;63092;43.582;19.528;2022-10-31T16:21:14;104.38;;;52.20;;
73359;SDS011;63092;43.582;19.528;2022-10-31T16:23:44;98.40;;;48.38;;
73359;SDS011;63092;43.582;19.528;2022-10-31T16:26:14;71.60;;;38.63;;
73359;SDS011;63092;43.582;19.528;2022-10-31T16:31:15;78.78;;;39.25;;
73359;SDS011;63092;43.582;19.528;2022-10-31T16:33:41;73.32;;;41.42;;
73359;SDS011;63092;43.582;19.528;2022-10-31T16:38:56;65.38;;;37.88;;
73359;SDS011;63092;43.582;19.528;2022-10-31T16:41:25;71.95;;;39.95;;
73359;SDS011;63092;43.582;19.528;2022-10-31T16:43:51;75.55;;;39.83;;
73359;SDS011;63092;43.582;19.528;2022-10-31T16:46:22;84.45;;;45.00;;
73359;SDS011;63092;43.582;19.528;2022-10-31T16:48:49;87.25;;;43.65;;
73359;SDS011;63092;43.582;19.528;2022-10-31T16:51:15;67.95;;;35.53;;
73359;SDS011;63092;43.582;19.528;2022-10-31T16:53:41;60.05;;;31.92;;
73359;SDS011;63092;43.582;19.528;2022-10-31T16:56:11;96.18;;;47.65;;
73359;SDS011;63092;43.582;19.528;2022-10-31T16:58:42;68.95;;;40.03;;
73359;SDS011;63092;43.582;19.528;2022-10-31T17:01:09;67.95;;;36.33;;
73359;SDS011;63092;43.582;19.528;2022-10-31T17:03:36;72.28;;;36.72;;
73359;SDS011;63092;43.582;19.528;2022-10-31T17:06:02;52.67;;;32.80;;
73359;SDS011;63092;43.582;19.528;2022-10-31T17:08:28;60.78;;;34.47;;
73359;SDS011;63092;43.582;19.528;2022-10-31T17:10:55;69.57;;;37.35;;
73359;SDS011;63092;43.582;19.528;2022-10-31T17:13:24;76.55;;;40.42;;
73359;SDS011;63092;43.582;19.528;2022-10-31T17:15:54;64.55;;;34.08;;
73359;SDS011;63092;43.582;19.528;2022-10-31T17:18:22;68.77;;;36.47;;
73359;SDS011;63092;43.582;19.528;2022-10-31T17:20:48;64.72;;;38.35;;
73359;SDS011;63092;43.582;19.528;2022-10-31T17:23:15;74.65;;;41.75;;
73359;SDS011;63092;43.582;19.528;2022-10-31T17:25:42;83.50;;;47.05;;
73359;SDS011;63092;43.582;19.528;2022-10-31T17:28:12;66.57;;;40.22;;
73359;SDS011;63092;43.582;19.528;2022-10-31T17:30:39;68.35;;;41.25;;
73359;SDS011;63092;43.582;19.528;2022-10-31T17:33:06;105.22;;;58.50;;
73359;SDS011;63092;43.582;19.528;2022-10-31T17:35:35;90.00;;;53.05;;
73359;SDS011;63092;43.582;19.528;2022-10-31T17:38:00;101.15;;;57.40;;
73359;SDS011;63092;43.582;19.528;2022-10-31T17:40:26;117.28;;;71.18;;
73359;SDS011;63092;43.582;19.528;2022-10-31T17:42:54;97.30;;;61.50;;
73359;SDS011;63092;43.582;19.528;2022-10-31T17:45:22;67.10;;;37.80;;
73359;SDS011;63092;43.582;19.528;2022-10-31T17:47:49;64.70;;;35.85;;
73359;SDS011;63092;43.582;19.528;2022-10-31T17:50:16;71.90;;;39.63;;
73359;SDS011;63092;43.582;19.528;2022-10-31T17:52:44;67.38;;;38.58;;